Time;durP1;ratioP1;P1;durP2;ratioP2;P2;SDS_P1;SDS_P2;PMS_P1;PMS_P2;Temp;Humidity;BMP_temperature;BMP_pressure;BME280_temperature;BME280_humidity;BME280_pressure;Samples;Min_cycle;Max_cycle;Signal;HPM_P1;HPM_P2
2021/12/31 00:01:01;;;;;;;;;;;11.10;99.80;;;;;;5018671;28;19984;-78
2021/12/31 00:03:26;;;;;;;;;;;11.10;99.90;;;;;;5019010;28;19917;-78
2021/12/31 00:05:52;;;;;;;;;;;11.10;99.70;;;;;;5018501;28;20370;-78
2021/12/31 00:08:17;;;;;;;;;;;11.10;99.40;;;;;;5019792;28;19914;-78
2021/12/31 00:10:43;;;;;;;;;;;11.10;99.40;;;;;;5019786;28;19921;-78
2021/12/31 00:13:09;;;;;;;;;;;11.00;99.20;;;;;;5021101;28;20115;-78
2021/12/31 00:15:34;;;;;;;;;;;11.10;99.10;;;;;;5019255;28;19922;-78
2021/12/31 00:18:00;;;;;;;;;;;11.00;99.10;;;;;;5016038;28;20072;-77
2021/12/31 00:20:26;;;;;;;;;;;11.10;99.00;;;;;;5016865;28;19921;-78
2021/12/31 00:25:24;;;;;;;;;;;11.10;98.90;;;;;;5020677;28;19924;-78
2021/12/31 00:27:49;;;;;;;;;;;11.10;98.90;;;;;;5019270;28;19913;-78
2021/12/31 00:30:16;;;;;;;;;;;11.10;98.80;;;;;;5021970;28;19956;-78
2021/12/31 00:32:41;;;;;;;;;;;11.20;98.70;;;;;;5024195;28;19929;-78
2021/12/31 00:35:07;;;;;;;;;;;11.20;98.60;;;;;;5023555;28;20288;-78
2021/12/31 00:37:35;;;;;;;;;;;11.20;98.60;;;;;;5026317;28;19913;-78
2021/12/31 00:40:01;;;;;;;;;;;11.20;98.90;;;;;;5021220;28;19921;-78
2021/12/31 00:42:27;;;;;;;;;;;11.20;98.90;;;;;;5016839;28;20373;-78
2021/12/31 00:44:53;;;;;;;;;;;11.30;98.90;;;;;;5023415;28;19940;-78
2021/12/31 00:47:19;;;;;;;;;;;11.30;98.80;;;;;;5030248;28;19913;-78
2021/12/31 00:49:45;;;;;;;;;;;11.30;98.70;;;;;;5019730;28;19913;-78
2021/12/31 00:52:11;;;;;;;;;;;11.30;98.60;;;;;;5018742;28;19919;-78
2021/12/31 00:54:38;;;;;;;;;;;11.30;98.70;;;;;;5026061;28;19914;-78
2021/12/31 00:57:04;;;;;;;;;;;11.40;98.70;;;;;;5017534;28;19913;-78
2021/12/31 00:59:33;;;;;;;;;;;11.40;98.80;;;;;;5026303;28;20399;-78
2021/12/31 01:02:06;;;;;;;;;;;11.40;98.80;;;;;;5015426;28;19920;-78
2021/12/31 01:04:32;;;;;;;;;;;11.40;99.10;;;;;;5026731;28;20483;-78
2021/12/31 01:06:58;;;;;;;;;;;11.50;98.80;;;;;;5019422;28;19920;-78
2021/12/31 01:09:24;;;;;;;;;;;11.50;98.80;;;;;;5023248;28;19914;-78
2021/12/31 01:11:50;;;;;;;;;;;11.50;98.70;;;;;;5023254;28;20376;-79
2021/12/31 01:14:30;;;;;;;;;;;11.50;98.70;;;;;;5029090;28;19959;-80
2021/12/31 01:17:03;;;;;;;;;;;11.50;98.70;;;;;;5029285;28;20012;-80
2021/12/31 01:19:48;;;;;;;;;;;11.50;98.70;;;;;;5024518;28;19954;-80
2021/12/31 01:22:14;;;;;;;;;;;11.50;98.60;;;;;;5022074;28;19917;-81
2021/12/31 01:24:40;;;;;;;;;;;11.50;98.60;;;;;;5022370;28;20281;-80
2021/12/31 01:27:05;;;;;;;;;;;11.50;98.60;;;;;;5019559;28;19914;-81
2021/12/31 01:29:31;;;;;;;;;;;11.50;98.60;;;;;;5019008;28;19917;-81
2021/12/31 01:31:57;;;;;;;;;;;11.40;98.50;;;;;;5011938;28;19913;-80
2021/12/31 01:34:24;;;;;;;;;;;11.40;98.60;;;;;;5026857;28;20270;-80
2021/12/31 01:36:50;;;;;;;;;;;11.40;98.70;;;;;;5030900;28;19917;-80
2021/12/31 01:39:16;;;;;;;;;;;11.30;98.80;;;;;;5028708;28;19917;-79
2021/12/31 01:41:41;;;;;;;;;;;11.30;98.90;;;;;;5025171;28;19914;-81
2021/12/31 01:44:07;;;;;;;;;;;11.20;99.00;;;;;;5018560;28;19922;-80
2021/12/31 01:46:35;;;;;;;;;;;11.20;99.00;;;;;;5024631;28;20008;-80
2021/12/31 01:49:03;;;;;;;;;;;11.20;99.00;;;;;;5019195;28;19926;-80
2021/12/31 01:51:29;;;;;;;;;;;11.20;99.10;;;;;;5030218;28;19913;-80
2021/12/31 01:53:55;;;;;;;;;;;11.20;99.10;;;;;;5024411;28;19920;-81
2021/12/31 01:56:22;;;;;;;;;;;11.20;99.10;;;;;;5019697;28;19918;-81
2021/12/31 01:58:49;;;;;;;;;;;11.20;98.90;;;;;;5031159;28;20291;-80
2021/12/31 02:01:15;;;;;;;;;;;11.20;99.30;;;;;;5017438;28;19913;-81
2021/12/31 02:03:41;;;;;;;;;;;11.20;99.10;;;;;;5024916;28;19913;-81
2021/12/31 02:06:06;;;;;;;;;;;11.20;99.10;;;;;;5029727;28;19917;-82
2021/12/31 02:08:32;;;;;;;;;;;11.20;99.10;;;;;;5030236;28;19913;-82
2021/12/31 02:10:58;;;;;;;;;;;11.20;99.00;;;;;;5025989;28;19913;-82
2021/12/31 02:13:24;;;;;;;;;;;11.10;99.00;;;;;;5028966;28;19940;-82
2021/12/31 02:15:51;;;;;;;;;;;11.10;99.00;;;;;;5025247;28;19967;-82
2021/12/31 02:18:17;;;;;;;;;;;11.10;99.00;;;;;;5030943;28;19920;-82
2021/12/31 02:20:47;;;;;;;;;;;11.00;99.00;;;;;;5032023;28;19913;-81
2021/12/31 02:23:16;;;;;;;;;;;11.00;98.90;;;;;;5032941;28;19917;-82
2021/12/31 02:25:41;;;;;;;;;;;11.00;98.90;;;;;;5021502;28;19918;-81
2021/12/31 02:28:07;;;;;;;;;;;11.00;98.80;;;;;;5033334;28;19914;-81
2021/12/31 02:30:33;;;;;;;;;;;11.00;98.80;;;;;;5020781;28;20372;-81
2021/12/31 02:32:59;;;;;;;;;;;11.00;98.70;;;;;;5036168;28;19916;-81
2021/12/31 02:35:25;;;;;;;;;;;11.00;98.70;;;;;;5022514;28;19914;-81
2021/12/31 02:37:51;;;;;;;;;;;11.00;98.80;;;;;;5027000;28;19999;-80
2021/12/31 02:40:18;;;;;;;;;;;11.00;98.90;;;;;;5024979;28;19956;-80
2021/12/31 02:42:44;;;;;;;;;;;11.00;99.00;;;;;;5027653;28;19959;-80
2021/12/31 02:45:11;;;;;;;;;;;11.00;99.00;;;;;;5024982;28;19917;-80
2021/12/31 02:47:44;;;;;;;;;;;10.90;98.90;;;;;;5025282;28;19939;-79
2021/12/31 02:50:12;;;;;;;;;;;10.90;98.80;;;;;;5025121;28;19909;-82
2021/12/31 02:52:37;;;;;;;;;;;10.90;98.70;;;;;;5020789;28;20016;-82
2021/12/31 02:55:03;;;;;;;;;;;10.90;98.70;;;;;;5023404;28;19943;-81
2021/12/31 02:57:29;;;;;;;;;;;10.90;98.60;;;;;;5026135;28;19921;-82
2021/12/31 02:59:55;;;;;;;;;;;10.90;98.50;;;;;;5017658;28;19916;-82
2021/12/31 03:02:24;;;;;;;;;;;10.90;98.50;;;;;;5023804;28;19995;-81
2021/12/31 03:04:53;;;;;;;;;;;10.80;98.50;;;;;;5018460;28;19921;-87
2021/12/31 03:07:21;;;;;;;;;;;10.90;98.50;;;;;;5032136;28;20305;-83
2021/12/31 03:09:48;;;;;;;;;;;10.90;98.40;;;;;;5021334;28;19920;-83
2021/12/31 03:12:14;;;;;;;;;;;10.90;98.30;;;;;;5024133;28;20445;-83
2021/12/31 03:14:41;;;;;;;;;;;10.90;98.30;;;;;;5025773;28;19989;-83
2021/12/31 03:17:07;;;;;;;;;;;10.90;98.20;;;;;;5010367;28;20014;-83
2021/12/31 03:19:33;;;;;;;;;;;10.90;98.20;;;;;;5018001;28;19953;-83
2021/12/31 03:21:58;;;;;;;;;;;10.80;98.10;;;;;;5019605;28;19917;-83
2021/12/31 03:24:24;;;;;;;;;;;10.80;98.10;;;;;;5025302;28;19928;-83
2021/12/31 03:26:50;;;;;;;;;;;10.80;98.00;;;;;;5019355;28;19909;-84
2021/12/31 03:29:15;;;;;;;;;;;10.70;98.00;;;;;;5021138;28;19917;-83
2021/12/31 03:31:41;;;;;;;;;;;10.70;98.10;;;;;;5022177;28;19913;-83
2021/12/31 03:34:07;;;;;;;;;;;10.70;98.20;;;;;;5020271;28;19910;-83
2021/12/31 03:36:32;;;;;;;;;;;10.70;98.30;;;;;;5031077;28;19914;-83
2021/12/31 03:38:58;;;;;;;;;;;10.70;98.30;;;;;;5027274;28;19909;-83
2021/12/31 03:41:23;;;;;;;;;;;10.70;98.20;;;;;;5029533;28;20304;-83
2021/12/31 03:43:49;;;;;;;;;;;10.70;98.10;;;;;;5027584;28;19910;-83
2021/12/31 03:46:15;;;;;;;;;;;10.70;98.10;;;;;;5024297;28;19924;-83
2021/12/31 03:48:41;;;;;;;;;;;10.60;98.10;;;;;;5027360;28;19917;-82
2021/12/31 03:51:06;;;;;;;;;;;10.70;98.10;;;;;;5023935;28;19913;-82
2021/12/31 03:53:32;;;;;;;;;;;10.60;98.00;;;;;;5014024;28;19909;-83
2021/12/31 03:55:57;;;;;;;;;;;10.60;98.10;;;;;;5019386;28;19913;-83
2021/12/31 03:58:23;;;;;;;;;;;10.60;98.10;;;;;;5018808;28;19921;-83
2021/12/31 04:00:49;;;;;;;;;;;10.60;98.20;;;;;;5018007;28;19913;-83
2021/12/31 04:03:14;;;;;;;;;;;10.60;98.20;;;;;;5018328;28;19910;-83
2021/12/31 04:05:41;;;;;;;;;;;10.50;98.20;;;;;;5022767;28;19925;-83
2021/12/31 04:08:08;;;;;;;;;;;10.50;98.30;;;;;;5026648;28;19914;-83
2021/12/31 04:10:34;;;;;;;;;;;10.50;98.20;;;;;;5029088;28;19917;-83
2021/12/31 04:13:00;;;;;;;;;;;10.50;98.20;;;;;;5022176;28;20447;-83
2021/12/31 04:15:25;;;;;;;;;;;10.50;98.30;;;;;;5025368;28;19913;-83
2021/12/31 04:17:51;;;;;;;;;;;10.50;98.30;;;;;;5022767;28;19917;-83
2021/12/31 04:20:21;;;;;;;;;;;10.50;98.20;;;;;;5019056;28;19913;-83
2021/12/31 04:22:55;;;;;;;;;;;10.50;98.20;;;;;;5018545;28;19917;-83
2021/12/31 04:25:21;;;;;;;;;;;10.60;98.30;;;;;;5018211;28;19925;-83
2021/12/31 04:27:47;;;;;;;;;;;10.60;98.30;;;;;;5019293;28;19920;-83
2021/12/31 04:30:12;;;;;;;;;;;10.60;98.30;;;;;;5018926;28;20004;-83
2021/12/31 04:32:39;;;;;;;;;;;10.60;98.30;;;;;;5023490;28;19913;-83
2021/12/31 04:35:06;;;;;;;;;;;10.60;98.40;;;;;;5026390;28;19914;-83
2021/12/31 04:37:31;;;;;;;;;;;10.70;98.40;;;;;;5018668;28;19910;-83
2021/12/31 04:39:57;;;;;;;;;;;10.60;98.30;;;;;;5019159;28;20419;-83
2021/12/31 04:42:23;;;;;;;;;;;10.70;98.30;;;;;;5019415;28;19913;-82
2021/12/31 04:44:48;;;;;;;;;;;10.70;98.20;;;;;;5038761;28;19913;-83
2021/12/31 04:47:14;;;;;;;;;;;10.70;98.30;;;;;;5025226;28;19944;-82
2021/12/31 04:49:40;;;;;;;;;;;10.70;98.40;;;;;;5025768;28;19917;-83
2021/12/31 04:52:05;;;;;;;;;;;10.70;98.40;;;;;;5018294;28;19910;-83
2021/12/31 04:54:31;;;;;;;;;;;10.80;98.50;;;;;;5033687;28;20431;-82
2021/12/31 04:56:58;;;;;;;;;;;10.70;98.50;;;;;;5018517;28;19914;-83
2021/12/31 04:59:24;;;;;;;;;;;10.80;98.60;;;;;;5020752;28;19920;-83
2021/12/31 05:01:50;;;;;;;;;;;10.80;98.60;;;;;;5017966;28;19920;-83
2021/12/31 05:04:16;;;;;;;;;;;10.80;98.70;;;;;;5021207;28;19925;-83
2021/12/31 05:06:42;;;;;;;;;;;10.80;98.80;;;;;;5022995;28;19943;-83
2021/12/31 05:09:08;;;;;;;;;;;10.70;98.70;;;;;;5018393;28;20367;-83
2021/12/31 05:11:34;;;;;;;;;;;10.80;98.80;;;;;;5018321;28;19936;-83
2021/12/31 05:14:00;;;;;;;;;;;10.80;98.70;;;;;;5018101;28;19924;-83
2021/12/31 05:16:25;;;;;;;;;;;10.80;98.80;;;;;;5016715;28;20300;-83
2021/12/31 05:18:51;;;;;;;;;;;10.80;99.00;;;;;;5019049;28;20304;-83
2021/12/31 05:21:20;;;;;;;;;;;10.80;99.10;;;;;;5022039;28;19919;-83
2021/12/31 05:23:45;;;;;;;;;;;10.90;99.20;;;;;;5031221;28;20375;-83
2021/12/31 05:26:11;;;;;;;;;;;10.90;99.30;;;;;;5018499;28;19964;-82
2021/12/31 05:28:37;;;;;;;;;;;11.00;99.50;;;;;;5017796;28;20455;-84
2021/12/31 05:31:03;;;;;;;;;;;11.00;99.80;;;;;;5017435;28;19921;-83
2021/12/31 05:33:28;;;;;;;;;;;11.00;99.80;;;;;;5022056;28;20369;-83
2021/12/31 05:35:56;;;;;;;;;;;11.00;99.80;;;;;;5017216;28;19936;-84
2021/12/31 05:38:22;;;;;;;;;;;11.10;99.80;;;;;;5013600;28;19913;-83
2021/12/31 05:40:47;;;;;;;;;;;11.10;99.90;;;;;;5015608;28;19920;-83
2021/12/31 05:43:13;;;;;;;;;;;11.10;99.90;;;;;;5017325;28;19920;-83
2021/12/31 05:45:39;;;;;;;;;;;11.20;99.90;;;;;;5017884;28;19920;-84
2021/12/31 05:48:05;;;;;;;;;;;11.20;99.90;;;;;;5026657;28;19913;-83
2021/12/31 05:50:32;;;;;;;;;;;11.20;99.90;;;;;;5013911;28;19913;-83
2021/12/31 05:52:59;;;;;;;;;;;11.20;99.90;;;;;;5015798;28;19913;-83
2021/12/31 05:55:25;;;;;;;;;;;11.20;99.90;;;;;;5017833;28;20344;-83
2021/12/31 05:57:51;;;;;;;;;;;11.20;99.90;;;;;;5015564;28;19921;-83
2021/12/31 06:00:16;;;;;;;;;;;11.20;99.90;;;;;;5015350;28;19913;-84
2021/12/31 06:02:42;;;;;;;;;;;11.20;99.90;;;;;;5013773;28;19910;-83
2021/12/31 06:05:08;;;;;;;;;;;11.20;99.90;;;;;;5017554;28;19917;-83
2021/12/31 06:07:33;;;;;;;;;;;11.10;99.90;;;;;;5015442;28;19940;-83
2021/12/31 06:09:59;;;;;;;;;;;11.10;99.90;;;;;;5020514;28;19917;-82
2021/12/31 06:12:25;;;;;;;;;;;11.20;99.90;;;;;;5016860;28;19913;-83
2021/12/31 06:14:53;;;;;;;;;;;11.20;99.90;;;;;;5016816;28;19920;-82
2021/12/31 06:17:23;;;;;;;;;;;11.20;99.90;;;;;;5016606;28;20281;-83
2021/12/31 06:19:48;;;;;;;;;;;11.20;99.90;;;;;;5020271;28;19913;-83
2021/12/31 06:22:15;;;;;;;;;;;11.20;99.90;;;;;;5025028;28;19920;-83
2021/12/31 06:24:41;;;;;;;;;;;11.20;99.90;;;;;;5016508;28;19925;-83
2021/12/31 06:27:07;;;;;;;;;;;11.20;99.90;;;;;;5023441;28;19998;-83
2021/12/31 06:29:33;;;;;;;;;;;11.30;99.90;;;;;;5018903;28;19921;-83
2021/12/31 06:31:59;;;;;;;;;;;11.30;99.90;;;;;;5023327;28;20405;-83
2021/12/31 06:34:24;;;;;;;;;;;11.30;99.90;;;;;;5014901;28;19914;-83
2021/12/31 06:36:50;;;;;;;;;;;11.30;99.90;;;;;;5019885;28;19916;-84
2021/12/31 06:39:16;;;;;;;;;;;11.30;99.90;;;;;;5014078;28;19917;-83
2021/12/31 06:41:42;;;;;;;;;;;11.20;99.90;;;;;;5028689;28;19920;-83
2021/12/31 06:44:07;;;;;;;;;;;11.20;99.90;;;;;;5016567;28;19920;-83
2021/12/31 06:46:33;;;;;;;;;;;11.20;99.90;;;;;;5019580;28;19913;-83
2021/12/31 06:48:59;;;;;;;;;;;11.20;99.90;;;;;;5017156;28;19920;-83
2021/12/31 06:51:25;;;;;;;;;;;11.20;99.90;;;;;;5016803;28;19914;-83
2021/12/31 06:53:50;;;;;;;;;;;11.20;99.90;;;;;;5004047;28;19914;-83
2021/12/31 06:56:16;;;;;;;;;;;11.20;99.90;;;;;;5024667;28;19918;-83
2021/12/31 06:58:44;;;;;;;;;;;11.20;99.90;;;;;;5011514;28;19955;-84
2021/12/31 07:01:10;;;;;;;;;;;11.20;99.90;;;;;;5027669;28;19940;-83
2021/12/31 07:03:36;;;;;;;;;;;11.20;99.90;;;;;;5022567;28;19913;-84
2021/12/31 07:06:02;;;;;;;;;;;11.20;99.80;;;;;;5020481;28;20288;-83
2021/12/31 07:08:28;;;;;;;;;;;11.20;99.80;;;;;;5019717;28;19913;-83
2021/12/31 07:10:54;;;;;;;;;;;11.20;99.90;;;;;;5020390;28;19913;-83
2021/12/31 07:13:20;;;;;;;;;;;11.20;99.90;;;;;;5018405;28;19918;-83
2021/12/31 07:15:48;;;;;;;;;;;11.20;99.90;;;;;;5020176;28;19920;-83
2021/12/31 07:18:14;;;;;;;;;;;11.20;99.90;;;;;;5020350;28;19972;-83
2021/12/31 07:20:39;;;;;;;;;;;11.20;99.80;;;;;;5020871;28;19913;-83
2021/12/31 07:23:06;;;;;;;;;;;11.10;99.80;;;;;;5022479;28;19948;-83
2021/12/31 07:25:32;;;;;;;;;;;11.10;99.70;;;;;;5033563;28;19924;-83
2021/12/31 07:27:58;;;;;;;;;;;11.00;99.50;;;;;;5019720;28;19914;-83
2021/12/31 07:30:23;;;;;;;;;;;11.00;99.50;;;;;;5018432;28;19935;-83
2021/12/31 07:32:49;;;;;;;;;;;10.90;99.40;;;;;;5017430;28;19949;-83
2021/12/31 07:35:15;;;;;;;;;;;10.90;99.50;;;;;;5019681;28;19913;-84
2021/12/31 07:37:40;;;;;;;;;;;10.90;99.40;;;;;;5019240;28;19914;-83
2021/12/31 07:40:07;;;;;;;;;;;10.80;99.40;;;;;;5020204;28;19913;-83
2021/12/31 07:42:33;;;;;;;;;;;10.80;99.40;;;;;;5022436;28;20338;-83
2021/12/31 07:44:58;;;;;;;;;;;10.80;99.30;;;;;;5029440;28;19917;-83
2021/12/31 07:47:24;;;;;;;;;;;10.80;99.30;;;;;;5019564;28;20012;-83
2021/12/31 07:49:49;;;;;;;;;;;10.80;99.30;;;;;;5030123;28;19953;-84
2021/12/31 07:52:15;;;;;;;;;;;10.80;99.50;;;;;;5016420;28;19939;-83
2021/12/31 07:54:41;;;;;;;;;;;10.80;99.20;;;;;;5019578;28;19909;-83
2021/12/31 07:57:06;;;;;;;;;;;10.90;99.20;;;;;;5019554;28;19914;-83
2021/12/31 07:59:32;;;;;;;;;;;10.90;99.20;;;;;;5019060;28;19952;-83
2021/12/31 08:01:57;;;;;;;;;;;10.90;99.30;;;;;;5022646;28;19921;-83
2021/12/31 08:04:23;;;;;;;;;;;10.90;99.50;;;;;;5030538;28;19917;-83
2021/12/31 08:06:49;;;;;;;;;;;10.90;99.60;;;;;;5020121;28;19921;-83
2021/12/31 08:09:14;;;;;;;;;;;11.00;99.70;;;;;;5023200;28;20012;-83
2021/12/31 08:11:41;;;;;;;;;;;11.00;99.80;;;;;;5019039;28;20396;-83
2021/12/31 08:14:06;;;;;;;;;;;11.00;99.90;;;;;;5018181;28;19944;-83
2021/12/31 08:16:32;;;;;;;;;;;11.00;99.90;;;;;;5027229;28;20285;-83
2021/12/31 08:18:58;;;;;;;;;;;11.00;99.90;;;;;;5021717;28;19922;-83
2021/12/31 08:21:23;;;;;;;;;;;11.10;99.90;;;;;;5018749;28;20404;-83
2021/12/31 08:23:49;;;;;;;;;;;11.10;99.90;;;;;;5026634;28;19921;-83
2021/12/31 08:26:14;;;;;;;;;;;11.10;99.90;;;;;;5020258;28;19972;-83
2021/12/31 08:28:40;;;;;;;;;;;11.10;99.90;;;;;;5021526;28;19988;-83
2021/12/31 08:31:06;;;;;;;;;;;11.20;99.90;;;;;;5018414;28;19917;-83
2021/12/31 08:33:31;;;;;;;;;;;11.20;99.90;;;;;;5029368;28;19916;-83
2021/12/31 08:35:57;;;;;;;;;;;11.20;99.90;;;;;;5016887;28;19929;-83
2021/12/31 08:38:23;;;;;;;;;;;11.20;99.90;;;;;;5019691;28;19914;-83
2021/12/31 08:40:49;;;;;;;;;;;11.30;99.90;;;;;;5017158;28;19916;-83
2021/12/31 08:43:15;;;;;;;;;;;11.30;99.90;;;;;;5016134;28;19914;-83
2021/12/31 08:45:40;;;;;;;;;;;11.30;99.90;;;;;;5018312;28;20283;-84
2021/12/31 08:48:06;;;;;;;;;;;11.30;99.90;;;;;;5015891;28;20016;-83
2021/12/31 08:50:32;;;;;;;;;;;11.40;99.90;;;;;;5029751;28;19910;-83
2021/12/31 08:52:58;;;;;;;;;;;11.40;99.90;;;;;;5019066;28;20395;-83
2021/12/31 08:55:24;;;;;;;;;;;11.50;99.90;;;;;;5017007;28;19941;-83
2021/12/31 08:57:50;;;;;;;;;;;11.60;99.90;;;;;;5018000;28;20408;-83
2021/12/31 09:00:16;;;;;;;;;;;11.70;99.90;;;;;;5017715;28;19920;-84
2021/12/31 09:02:42;;;;;;;;;;;11.70;99.90;;;;;;5020264;28;19913;-84
2021/12/31 09:05:08;;;;;;;;;;;11.80;99.90;;;;;;5018097;28;19919;-84
2021/12/31 09:07:34;;;;;;;;;;;11.80;99.90;;;;;;5011793;28;19984;-84
2021/12/31 09:10:00;;;;;;;;;;;11.80;99.90;;;;;;5015511;28;19957;-84
2021/12/31 09:12:25;;;;;;;;;;;11.80;99.90;;;;;;5017825;28;19940;-84
2021/12/31 09:14:51;;;;;;;;;;;11.80;99.90;;;;;;5024656;28;19913;-83
2021/12/31 09:17:17;;;;;;;;;;;11.80;99.90;;;;;;5016046;28;20353;-83
2021/12/31 09:19:42;;;;;;;;;;;11.80;99.90;;;;;;5020211;28;19910;-83
2021/12/31 09:22:09;;;;;;;;;;;11.80;99.90;;;;;;5017052;28;19921;-83
2021/12/31 09:24:35;;;;;;;;;;;11.80;99.90;;;;;;5017514;28;20104;-83
2021/12/31 09:27:00;;;;;;;;;;;11.80;99.90;;;;;;5017314;28;19918;-84
2021/12/31 09:29:26;;;;;;;;;;;11.90;99.90;;;;;;5020941;28;19920;-83
2021/12/31 09:31:52;;;;;;;;;;;11.90;99.90;;;;;;5014304;28;19916;-84
2021/12/31 09:34:18;;;;;;;;;;;11.90;99.90;;;;;;5020878;28;19983;-84
2021/12/31 09:36:44;;;;;;;;;;;12.00;99.90;;;;;;5024192;28;19917;-84
2021/12/31 09:39:09;;;;;;;;;;;12.00;99.90;;;;;;5021529;28;20644;-84
2021/12/31 09:41:35;;;;;;;;;;;12.10;99.90;;;;;;5017290;28;20407;-84
2021/12/31 09:44:01;;;;;;;;;;;12.10;99.90;;;;;;5017393;28;19909;-84
2021/12/31 09:46:26;;;;;;;;;;;12.20;99.90;;;;;;5019202;28;20450;-84
2021/12/31 09:48:52;;;;;;;;;;;12.20;99.90;;;;;;5017056;28;19909;-83
2021/12/31 09:51:18;;;;;;;;;;;12.20;99.90;;;;;;5017672;28;19913;-83
2021/12/31 09:53:44;;;;;;;;;;;12.30;99.90;;;;;;5016765;28;19913;-84
2021/12/31 09:56:10;;;;;;;;;;;12.40;99.90;;;;;;5016609;28;19914;-84
2021/12/31 09:58:36;;;;;;;;;;;12.40;99.90;;;;;;5020259;28;19916;-84
2021/12/31 10:01:03;;;;;;;;;;;12.50;99.90;;;;;;5023100;28;19913;-84
2021/12/31 10:03:29;;;;;;;;;;;12.50;99.90;;;;;;5016695;28;19909;-85
2021/12/31 10:05:57;;;;;;;;;;;12.60;99.90;;;;;;5016863;28;19960;-85
2021/12/31 10:08:30;;;;;;;;;;;12.70;99.90;;;;;;5016262;28;19932;-84
2021/12/31 10:11:05;;;;;;;;;;;12.80;99.90;;;;;;5015652;28;19913;-86
2021/12/31 10:13:31;;;;;;;;;;;12.80;99.90;;;;;;5017107;28;20004;-84
2021/12/31 10:15:57;;;;;;;;;;;12.80;99.90;;;;;;5019373;28;19952;-85
2021/12/31 10:18:30;;;;;;;;;;;12.80;99.90;;;;;;5015930;28;19957;-85
2021/12/31 10:20:56;;;;;;;;;;;12.90;99.80;;;;;;5026530;28;19921;-85
2021/12/31 10:23:21;;;;;;;;;;;12.90;99.70;;;;;;5015408;28;19930;-85
2021/12/31 10:25:47;;;;;;;;;;;12.90;99.70;;;;;;5020611;28;19921;-86
2021/12/31 10:28:14;;;;;;;;;;;12.90;99.60;;;;;;5022919;28;19913;-85
2021/12/31 10:30:40;;;;;;;;;;;12.90;99.60;;;;;;5022093;28;19921;-85
2021/12/31 10:33:06;;;;;;;;;;;12.90;99.60;;;;;;5022755;28;19955;-85
2021/12/31 10:35:42;;;;;;;;;;;12.90;99.50;;;;;;5020663;28;19914;-86
2021/12/31 10:38:11;;;;;;;;;;;13.00;99.50;;;;;;5019058;28;19913;-85
2021/12/31 10:40:43;;;;;;;;;;;13.00;99.50;;;;;;5020738;28;19913;-85
2021/12/31 10:43:11;;;;;;;;;;;13.00;99.50;;;;;;5019763;28;19914;-85
2021/12/31 10:45:38;;;;;;;;;;;13.00;99.50;;;;;;5034620;28;19924;-86
2021/12/31 10:48:12;;;;;;;;;;;13.10;99.40;;;;;;5025846;28;19917;-85
2021/12/31 10:50:50;;;;;;;;;;;13.10;99.20;;;;;;5021001;28;20261;-86
2021/12/31 10:53:28;;;;;;;;;;;13.10;99.20;;;;;;5020404;28;19952;-85
2021/12/31 10:56:03;;;;;;;;;;;13.10;99.20;;;;;;5019155;28;19913;-86
2021/12/31 10:58:28;;;;;;;;;;;13.10;99.30;;;;;;5019653;28;19913;-86
2021/12/31 11:00:54;;;;;;;;;;;13.10;99.30;;;;;;5020166;28;19960;-85
2021/12/31 11:03:20;;;;;;;;;;;13.10;99.30;;;;;;5019013;28;19917;-86
2021/12/31 11:05:45;;;;;;;;;;;13.10;99.20;;;;;;5017691;28;19917;-86
2021/12/31 11:08:13;;;;;;;;;;;13.20;99.20;;;;;;5012508;28;19914;-86
2021/12/31 11:10:39;;;;;;;;;;;13.30;99.30;;;;;;5020246;28;19914;-86
2021/12/31 11:13:13;;;;;;;;;;;13.30;99.30;;;;;;5021053;28;19913;-85
2021/12/31 11:15:40;;;;;;;;;;;13.40;99.40;;;;;;5026343;28;19936;-87
2021/12/31 11:18:06;;;;;;;;;;;13.50;99.30;;;;;;5028591;28;20000;-90
2021/12/31 11:20:32;;;;;;;;;;;13.60;99.10;;;;;;5018889;28;19953;-87
2021/12/31 11:22:58;;;;;;;;;;;13.70;99.10;;;;;;5014858;28;19920;-84
2021/12/31 11:25:25;;;;;;;;;;;13.70;98.80;;;;;;5015116;28;20004;-81
2021/12/31 11:27:52;;;;;;;;;;;13.80;98.80;;;;;;5015681;28;19968;-82
2021/12/31 11:30:26;;;;;;;;;;;13.80;98.60;;;;;;5021051;28;20380;-79
2021/12/31 11:33:10;;;;;;;;;;;13.90;98.60;;;;;;5018386;28;19948;-81
2021/12/31 11:35:38;;;;;;;;;;;13.90;98.60;;;;;;5012159;28;19914;-77
2021/12/31 11:38:07;;;;;;;;;;;13.90;98.60;;;;;;5017792;28;19914;-84
2021/12/31 11:40:33;;;;;;;;;;;14.00;98.50;;;;;;5018278;28;19914;-77
2021/12/31 11:43:15;;;;;;;;;;;14.10;98.50;;;;;;5014422;28;19914;-76
2021/12/31 11:45:41;;;;;;;;;;;14.20;98.50;;;;;;5018300;28;19921;-76
2021/12/31 11:48:25;;;;;;;;;;;14.20;98.30;;;;;;5020996;28;19920;-79
2021/12/31 11:51:04;;;;;;;;;;;14.20;98.30;;;;;;5027723;28;20368;-75
2021/12/31 11:53:30;;;;;;;;;;;14.30;98.00;;;;;;5008186;28;19915;-76
2021/12/31 11:55:55;;;;;;;;;;;14.40;97.80;;;;;;5023433;28;19913;-78
2021/12/31 11:58:40;;;;;;;;;;;14.40;97.80;;;;;;5019780;28;19909;-78
2021/12/31 12:01:25;;;;;;;;;;;14.40;97.80;;;;;;5025099;28;19918;-78
2021/12/31 12:04:10;;;;;;;;;;;14.30;97.80;;;;;;5035787;28;19914;-78
2021/12/31 12:06:51;;;;;;;;;;;14.40;97.70;;;;;;5017156;28;20008;-78
2021/12/31 12:09:17;;;;;;;;;;;14.40;97.60;;;;;;5017882;28;20059;-78
2021/12/31 12:12:02;;;;;;;;;;;14.40;97.50;;;;;;5024006;28;19952;-77
2021/12/31 12:14:31;;;;;;;;;;;14.40;97.50;;;;;;5015341;28;19910;-78
2021/12/31 12:16:57;;;;;;;;;;;14.40;97.60;;;;;;5017841;28;19917;-77
2021/12/31 12:19:43;;;;;;;;;;;14.40;97.70;;;;;;5019460;28;19910;-78
2021/12/31 12:22:08;;;;;;;;;;;14.50;97.70;;;;;;5015906;28;19949;-78
2021/12/31 12:24:35;;;;;;;;;;;14.50;97.80;;;;;;5016499;28;20373;-77
2021/12/31 12:27:03;;;;;;;;;;;14.60;97.90;;;;;;5017627;28;19913;-75
2021/12/31 12:29:28;;;;;;;;;;;14.60;97.80;;;;;;5016704;28;20296;-75
2021/12/31 12:32:07;;;;;;;;;;;14.60;97.70;;;;;;5019812;28;19960;-75
2021/12/31 12:34:33;;;;;;;;;;;14.60;97.70;;;;;;5015502;28;20435;-78
2021/12/31 12:36:58;;;;;;;;;;;14.70;97.70;;;;;;5028129;28;19909;-77
2021/12/31 12:39:24;;;;;;;;;;;14.80;97.60;;;;;;5016951;28;20343;-77
2021/12/31 12:41:50;;;;;;;;;;;14.80;97.40;;;;;;5019651;28;19922;-77
2021/12/31 12:44:16;;;;;;;;;;;14.80;97.40;;;;;;5016954;28;19918;-75
2021/12/31 12:46:56;;;;;;;;;;;14.80;97.70;;;;;;5021540;28;19913;-75
2021/12/31 12:49:26;;;;;;;;;;;14.80;97.40;;;;;;5017048;28;20206;-73
2021/12/31 12:51:54;;;;;;;;;;;14.90;97.20;;;;;;5015903;28;20320;-72
2021/12/31 12:54:24;;;;;;;;;;;14.90;97.10;;;;;;5017509;28;19913;-74
2021/12/31 12:56:50;;;;;;;;;;;14.90;97.10;;;;;;5017893;28;19914;-74
2021/12/31 12:59:20;;;;;;;;;;;14.90;97.10;;;;;;5031166;28;20395;-72
2021/12/31 13:01:46;;;;;;;;;;;14.90;97.10;;;;;;5019172;28;20008;-72
2021/12/31 13:04:13;;;;;;;;;;;14.90;97.20;;;;;;5030576;28;20372;-71
2021/12/31 13:06:41;;;;;;;;;;;14.90;97.30;;;;;;5014496;28;19920;-72
2021/12/31 13:09:07;;;;;;;;;;;14.90;97.30;;;;;;5020389;28;20052;-73
2021/12/31 13:11:34;;;;;;;;;;;14.90;97.40;;;;;;5016461;28;20544;-73
2021/12/31 13:14:00;;;;;;;;;;;14.80;97.50;;;;;;5023854;28;19921;-73
2021/12/31 13:16:26;;;;;;;;;;;14.90;97.40;;;;;;5015998;28;20009;-72
2021/12/31 13:18:55;;;;;;;;;;;14.90;97.50;;;;;;5023695;28;20368;-72
2021/12/31 13:21:21;;;;;;;;;;;14.80;97.70;;;;;;5020228;28;19922;-73
2021/12/31 13:23:54;;;;;;;;;;;14.90;97.80;;;;;;5016151;28;19921;-73
2021/12/31 13:26:25;;;;;;;;;;;14.90;97.90;;;;;;5020295;28;19984;-73
2021/12/31 13:28:51;;;;;;;;;;;15.00;97.90;;;;;;5018363;28;19921;-73
2021/12/31 13:31:28;;;;;;;;;;;15.10;98.10;;;;;;5015068;28;19920;-74
2021/12/31 13:33:54;;;;;;;;;;;15.20;97.90;;;;;;5018441;28;19969;-77
2021/12/31 13:36:25;;;;;;;;;;;15.20;97.80;;;;;;5015618;28;20818;-76
2021/12/31 13:39:07;;;;;;;;;;;15.30;97.60;;;;;;5016512;28;19917;-77
2021/12/31 13:41:35;;;;;;;;;;;15.40;97.70;;;;;;5014527;28;19913;-78
2021/12/31 13:44:04;;;;;;;;;;;15.40;97.70;;;;;;5013759;28;20011;-78
2021/12/31 13:46:32;;;;;;;;;;;15.50;97.80;;;;;;5018933;28;19921;-78
2021/12/31 13:49:04;;;;;;;;;;;15.60;97.70;;;;;;5022330;28;19921;-77
2021/12/31 13:51:33;;;;;;;;;;;15.70;97.70;;;;;;5017521;28;19917;-76
2021/12/31 13:53:59;;;;;;;;;;;15.70;97.30;;;;;;5015474;28;20410;-76
2021/12/31 13:56:31;;;;;;;;;;;15.80;97.50;;;;;;5011706;28;19980;-83
2021/12/31 13:58:57;;;;;;;;;;;15.80;97.00;;;;;;5016889;28;20004;-77
2021/12/31 14:01:23;;;;;;;;;;;15.90;97.00;;;;;;5014532;28;19963;-74
2021/12/31 14:04:08;;;;;;;;;;;15.90;96.80;;;;;;5016531;28;20357;-80
2021/12/31 14:06:34;;;;;;;;;;;16.00;96.40;;;;;;5016364;28;20045;-78
2021/12/31 14:09:00;;;;;;;;;;;16.10;95.70;;;;;;5019989;28;20200;-78
2021/12/31 14:11:26;;;;;;;;;;;16.10;95.50;;;;;;5018635;28;19941;-78
2021/12/31 14:13:51;;;;;;;;;;;16.10;95.30;;;;;;5018760;28;19909;-78
2021/12/31 14:16:17;;;;;;;;;;;16.00;95.00;;;;;;5019859;28;19920;-79
2021/12/31 14:18:44;;;;;;;;;;;16.00;95.20;;;;;;5022678;28;19921;-79